Time;durP1;ratioP1;P1;durP2;ratioP2;P2;SDS_P1;SDS_P2;PMS_P1;PMS_P2;Temp;Humidity;BMP_temperature;BMP_pressure;BME280_temperature;BME280_humidity;BME280_pressure;Samples;Min_cycle;Max_cycle;Signal;HPM_P1;HPM_P2
2022/12/21 00:01:35;;;;;;;3.13;2.00;;;21.00;48.40;;;;;;5063220;28;20025;-70
2022/12/21 00:04:02;;;;;;;3.38;2.20;;;21.00;48.50;;;;;;5042699;28;20021;-69
2022/12/21 00:06:31;;;;;;;2.90;2.10;;;21.00;48.50;;;;;;5052693;28;20036;-69
2022/12/21 00:09:01;;;;;;;4.88;2.30;;;21.00;48.50;;;;;;5063145;28;20044;-71
2022/12/21 00:11:28;;;;;;;3.00;2.20;;;21.00;48.50;;;;;;5051109;28;20166;-69
2022/12/21 00:13:59;;;;;;;2.50;1.90;;;21.00;48.50;;;;;;5033862;28;20079;-71
2022/12/21 00:16:28;;;;;;;3.00;2.03;;;21.00;48.60;;;;;;5053145;28;20376;-70
2022/12/21 00:18:54;;;;;;;2.97;2.27;;;21.00;48.50;;;;;;5054016;28;20118;-71
2022/12/21 00:21:22;;;;;;;3.22;2.10;;;20.90;48.50;;;;;;5058831;28;20029;-70
2022/12/21 00:23:50;;;;;;;2.78;1.90;;;20.90;48.50;;;;;;5040246;28;20468;-68
2022/12/21 00:26:18;;;;;;;3.30;1.90;;;20.90;48.60;;;;;;5055483;28;20399;-69
2022/12/21 00:28:44;;;;;;;2.90;2.03;;;20.90;48.60;;;;;;5040926;28;20162;-68
2022/12/21 00:31:13;;;;;;;3.40;2.10;;;20.90;48.60;;;;;;5041881;28;20053;-68
2022/12/21 00:33:40;;;;;;;3.05;2.08;;;20.90;48.60;;;;;;5044263;28;20068;-68
2022/12/21 00:36:09;;;;;;;3.58;2.08;;;20.80;48.60;;;;;;5061096;28;20039;-68
2022/12/21 00:38:35;;;;;;;2.85;2.00;;;20.90;48.60;;;;;;5058399;28;20538;-69
2022/12/21 00:41:06;;;;;;;3.20;2.03;;;20.80;48.60;;;;;;5047633;28;20024;-69
2022/12/21 00:43:34;;;;;;;2.90;2.03;;;20.80;48.60;;;;;;5047101;28;20104;-69
2022/12/21 00:46:00;;;;;;;3.17;2.00;;;20.80;48.60;;;;;;5040996;28;20465;-69
2022/12/21 00:48:27;;;;;;;3.22;2.20;;;20.80;48.70;;;;;;5052376;28;20029;-68
2022/12/21 00:50:53;;;;;;;3.13;2.20;;;20.80;48.60;;;;;;5059849;28;20052;-70
2022/12/21 00:53:19;;;;;;;2.63;1.92;;;20.80;48.70;;;;;;5053512;28;20481;-71
2022/12/21 00:55:55;;;;;;;2.97;1.92;;;20.80;48.70;;;;;;5055995;28;20029;-70
2022/12/21 00:58:21;;;;;;;2.90;2.00;;;20.80;48.70;;;;;;5048883;28;20029;-70
2022/12/21 01:00:47;;;;;;;2.50;1.95;;;20.70;48.70;;;;;;5064270;28;20032;-71
2022/12/21 01:03:13;;;;;;;3.15;2.10;;;20.70;48.70;;;;;;5045543;28;20017;-69
2022/12/21 01:05:38;;;;;;;2.72;1.90;;;20.70;48.60;;;;;;5053149;28;20026;-69
2022/12/21 01:08:04;;;;;;;2.30;1.52;;;20.70;48.70;;;;;;5048549;28;20392;-71
2022/12/21 01:10:29;;;;;;;3.40;2.08;;;20.70;48.70;;;;;;5049480;28;20035;-70
2022/12/21 01:12:57;;;;;;;2.90;2.00;;;20.70;48.70;;;;;;5058771;28;20029;-70
2022/12/21 01:15:23;;;;;;;2.53;1.92;;;20.70;48.80;;;;;;5050747;28;20374;-70
2022/12/21 01:17:48;;;;;;;2.50;2.00;;;20.70;48.70;;;;;;5055368;28;20111;-70
2022/12/21 01:20:14;;;;;;;3.35;2.28;;;20.70;48.80;;;;;;5048629;28;20024;-70
2022/12/21 01:22:40;;;;;;;3.00;1.98;;;20.60;48.80;;;;;;5050313;28;20400;-70
2022/12/21 01:25:05;;;;;;;2.83;2.00;;;20.60;48.80;;;;;;5039071;28;20025;-70
2022/12/21 01:27:31;;;;;;;2.97;2.13;;;20.60;48.80;;;;;;5030399;28;20552;-70
2022/12/21 01:29:56;;;;;;;3.80;2.40;;;20.60;48.80;;;;;;5053463;28;20033;-70
2022/12/21 01:32:22;;;;;;;3.00;2.10;;;20.60;48.80;;;;;;5049327;28;20537;-68
2022/12/21 01:34:48;;;;;;;2.85;1.92;;;20.60;48.80;;;;;;5045302;28;20025;-71
2022/12/21 01:37:13;;;;;;;2.50;1.90;;;20.60;48.90;;;;;;5053462;28;20021;-71
2022/12/21 01:39:39;;;;;;;3.25;2.00;;;20.60;48.90;;;;;;5038639;28;20026;-69
2022/12/21 01:42:04;;;;;;;2.80;1.80;;;20.60;48.90;;;;;;5041412;28;20182;-69
2022/12/21 01:45:04;;;;;;;3.00;2.10;;;20.50;48.80;;;;;;5049990;28;20036;-69
2022/12/21 01:47:44;;;;;;;2.80;2.00;;;20.50;48.90;;;;;;5012276;28;20028;-68
2022/12/21 01:50:22;;;;;;;3.78;2.30;;;20.50;48.90;;;;;;5051411;28;20480;-69
2022/12/21 01:52:49;;;;;;;2.53;2.00;;;20.50;48.90;;;;;;5049578;28;20017;-69
2022/12/21 01:55:14;;;;;;;2.80;2.10;;;20.50;48.90;;;;;;5047484;28;20017;-69
2022/12/21 01:57:40;;;;;;;2.80;1.92;;;20.50;49.00;;;;;;5044467;28;20044;-69
2022/12/21 02:00:08;;;;;;;2.60;2.00;;;20.50;49.50;;;;;;5048070;28;20459;-70
2022/12/21 02:02:47;;;;;;;3.40;2.10;;;20.50;49.00;;;;;;5051572;28;20019;-70
2022/12/21 02:05:30;;;;;;;2.60;1.98;;;20.40;49.00;;;;;;5042645;28;20021;-69
2022/12/21 02:07:58;;;;;;;2.70;1.90;;;20.50;49.00;;;;;;5054068;28;20080;-69
2022/12/21 02:10:24;;;;;;;2.83;1.90;;;20.40;49.00;;;;;;5052013;28;20032;-70
2022/12/21 02:12:54;;;;;;;2.25;1.85;;;20.40;49.00;;;;;;5057729;28;20028;-69
2022/12/21 02:15:28;;;;;;;3.00;1.63;;;20.40;49.00;;;;;;5050564;28;20021;-69
2022/12/21 02:18:13;;;;;;;2.67;1.90;;;20.40;49.00;;;;;;5049501;28;20028;-69
2022/12/21 02:21:24;;;;;;;2.95;2.17;;;20.40;49.00;;;;;;5040607;28;20032;-70
2022/12/21 02:24:25;;;;;;;3.45;1.98;;;20.40;49.00;;;;;;5046257;28;20070;-69
2022/12/21 02:27:13;;;;;;;2.90;2.10;;;20.40;49.00;;;;;;5050764;28;20034;-69
2022/12/21 02:29:56;;;;;;;2.72;1.98;;;20.40;49.00;;;;;;5049706;28;20078;-69
2022/12/21 02:32:31;;;;;;;2.78;1.90;;;20.40;49.10;;;;;;5053607;28;20029;-69
2022/12/21 02:35:15;;;;;;;2.72;1.90;;;20.40;49.10;;;;;;5049617;28;20039;-69
2022/12/21 02:38:00;;;;;;;2.88;1.90;;;20.30;49.10;;;;;;5055775;28;20036;-69
2022/12/21 02:40:49;;;;;;;2.92;1.85;;;20.30;49.10;;;;;;5060510;28;20082;-69
2022/12/21 02:46:28;;;;;;;2.90;2.00;;;20.30;49.20;;;;;;5051983;28;20048;-69
2022/12/21 02:49:03;;;;;;;2.83;2.00;;;20.30;49.20;;;;;;5046494;28;20032;-69
2022/12/21 02:51:42;;;;;;;2.92;1.88;;;20.30;49.20;;;;;;5048810;28;20051;-69
2022/12/21 02:54:09;;;;;;;2.63;1.80;;;20.30;49.20;;;;;;5059489;28;20028;-69
2022/12/21 02:56:34;;;;;;;3.13;1.92;;;20.30;49.20;;;;;;5056700;28;20031;-69
2022/12/21 02:59:01;;;;;;;2.90;1.83;;;20.30;49.20;;;;;;5056910;28;20033;-69
2022/12/21 03:02:11;;;;;;;2.40;1.80;;;20.30;49.20;;;;;;5046994;28;20118;-69
2022/12/21 03:04:45;;;;;;;2.83;1.95;;;20.30;49.20;;;;;;4968085;28;20459;-69
2022/12/21 03:07:17;;;;;;;2.78;2.00;;;20.30;49.30;;;;;;5056762;28;20037;-69
2022/12/21 03:10:23;;;;;;;2.80;1.77;;;20.20;49.20;;;;;;5050791;28;20041;-69
2022/12/21 03:13:04;;;;;;;2.47;1.80;;;20.30;49.30;;;;;;4950975;28;20129;-69
2022/12/21 03:15:36;;;;;;;2.53;1.90;;;20.20;49.20;;;;;;5046517;28;20393;-69
2022/12/21 03:18:12;;;;;;;2.60;1.90;;;20.20;49.20;;;;;;5043121;28;20029;-69
2022/12/21 03:20:46;;;;;;;2.60;1.83;;;20.20;49.30;;;;;;5058996;28;20041;-69
2022/12/21 03:23:24;;;;;;;2.85;1.92;;;20.20;49.30;;;;;;5030697;28;20025;-69
2022/12/21 03:26:02;;;;;;;2.20;1.60;;;20.20;49.40;;;;;;5050004;28;20035;-70
2022/12/21 03:28:31;;;;;;;2.80;1.75;;;20.20;49.40;;;;;;5054019;28;20925;-69
2022/12/21 03:31:03;;;;;;;2.90;1.80;;;20.20;49.40;;;;;;5051419;28;20051;-69
2022/12/21 03:33:34;;;;;;;2.60;1.88;;;20.20;49.40;;;;;;5046589;28;20510;-69
2022/12/21 03:36:13;;;;;;;2.40;1.70;;;20.20;49.40;;;;;;5038734;28;20030;-69
2022/12/21 03:38:48;;;;;;;2.70;1.80;;;20.20;49.40;;;;;;5055073;28;20033;-69
2022/12/21 03:41:33;;;;;;;2.80;1.83;;;20.10;49.40;;;;;;5050709;28;20037;-69
2022/12/21 03:44:06;;;;;;;2.60;1.88;;;20.20;49.50;;;;;;5053554;28;20060;-69
2022/12/21 03:46:37;;;;;;;2.33;1.70;;;20.10;49.40;;;;;;5048020;28;20025;-69
2022/12/21 03:49:12;;;;;;;2.22;1.52;;;20.10;49.40;;;;;;5051232;28;20491;-69
2022/12/21 03:51:52;;;;;;;2.60;1.80;;;20.10;49.40;;;;;;5049707;28;20033;-69
2022/12/21 03:54:40;;;;;;;2.47;1.70;;;20.10;49.40;;;;;;5046160;28;20037;-68
2022/12/21 03:57:07;;;;;;;2.60;1.73;;;20.10;49.50;;;;;;5052609;28;20031;-69
2022/12/21 03:59:34;;;;;;;2.70;1.75;;;20.10;49.50;;;;;;5040874;28;20481;-69
2022/12/21 04:02:05;;;;;;;2.40;1.70;;;20.10;49.50;;;;;;5050499;28;20471;-69
2022/12/21 04:04:36;;;;;;;2.22;1.70;;;20.10;49.50;;;;;;5050563;28;20021;-69
2022/12/21 04:07:06;;;;;;;2.47;1.73;;;20.10;49.50;;;;;;5051653;28;20029;-69
2022/12/21 04:09:34;;;;;;;2.38;1.70;;;20.10;49.60;;;;;;5048069;28;20021;-68
2022/12/21 04:14:44;;;;;;;2.72;1.77;;;20.10;49.50;;;;;;5045445;28;20448;-69
2022/12/21 04:17:09;;;;;;;2.47;1.60;;;20.00;49.50;;;;;;5052190;28;20021;-70
2022/12/21 04:30:32;;;;;;;2.13;1.80;;;20.00;49.60;;;;;;5054925;28;20040;-70
2022/12/21 04:32:58;;;;;;;2.50;1.80;;;20.00;49.60;;;;;;5047425;28;20029;-69
2022/12/21 04:35:23;;;;;;;2.40;1.70;;;20.00;49.60;;;;;;5056230;28;20020;-69
2022/12/21 04:37:49;;;;;;;2.90;1.77;;;20.00;49.60;;;;;;5057080;28;20124;-70
2022/12/21 04:40:15;;;;;;;2.40;1.70;;;20.00;49.70;;;;;;5054814;28;20530;-69
2022/12/21 04:42:40;;;;;;;2.35;1.70;;;20.00;49.70;;;;;;5049245;28;20049;-68
2022/12/21 04:45:06;;;;;;;2.45;1.70;;;20.00;49.70;;;;;;5049990;28;20199;-69
2022/12/21 04:47:32;;;;;;;2.63;1.73;;;20.00;49.80;;;;;;5048102;28;20473;-69
2022/12/21 04:49:57;;;;;;;2.15;1.48;;;20.00;49.90;;;;;;5060165;28;20108;-69
2022/12/21 04:52:23;;;;;;;2.40;1.80;;;20.00;50.00;;;;;;5043743;28;20052;-69
2022/12/21 04:54:49;;;;;;;2.60;1.90;;;19.90;50.00;;;;;;5053155;28;20029;-69
2022/12/21 04:57:14;;;;;;;2.50;1.90;;;19.90;50.00;;;;;;5052026;28;20523;-67
2022/12/21 04:59:40;;;;;;;2.55;1.83;;;19.90;50.10;;;;;;5049131;28;20055;-68
2022/12/21 05:02:05;;;;;;;2.80;2.00;;;19.90;50.20;;;;;;5036912;28;20460;-68
2022/12/21 05:04:31;;;;;;;2.55;1.95;;;19.90;50.30;;;;;;5048411;28;20037;-68
2022/12/21 05:06:56;;;;;;;2.70;2.00;;;19.90;50.30;;;;;;5052158;28;20487;-68
2022/12/21 05:09:22;;;;;;;2.40;1.90;;;19.90;50.30;;;;;;5047428;28;20064;-68
2022/12/21 05:11:48;;;;;;;2.55;1.67;;;19.90;50.30;;;;;;5054992;28;20021;-68
2022/12/21 05:14:14;;;;;;;2.50;1.77;;;19.90;50.20;;;;;;5039206;28;20534;-68
2022/12/21 05:16:40;;;;;;;2.42;1.88;;;19.90;50.20;;;;;;5037744;28;20052;-68
2022/12/21 05:19:05;;;;;;;2.40;1.70;;;19.90;50.30;;;;;;5046954;28;20033;-68
2022/12/21 05:21:31;;;;;;;2.53;1.77;;;19.90;50.30;;;;;;5045082;28;20155;-69
2022/12/21 05:23:57;;;;;;;2.45;1.73;;;19.90;50.40;;;;;;5035804;28;20469;-70
2022/12/21 05:26:23;;;;;;;2.88;1.92;;;19.90;50.90;;;;;;5035011;28;20021;-69
2022/12/21 05:28:48;;;;;;;2.80;1.80;;;19.80;50.40;;;;;;5039820;28;20036;-69
2022/12/21 05:31:15;;;;;;;2.97;1.95;;;19.90;50.50;;;;;;5053737;28;20103;-70
2022/12/21 05:33:42;;;;;;;3.13;1.90;;;19.80;50.50;;;;;;5030049;28;20032;-69
2022/12/21 05:36:10;;;;;;;2.92;1.95;;;19.80;50.50;;;;;;5043906;28;20039;-69
2022/12/21 05:38:36;;;;;;;2.83;1.70;;;19.80;50.60;;;;;;5054172;28;20036;-69
2022/12/21 05:41:02;;;;;;;2.75;1.83;;;19.80;50.60;;;;;;5053755;28;20459;-69
2022/12/21 05:43:28;;;;;;;2.88;2.10;;;19.80;50.60;;;;;;5048315;28;20034;-67
2022/12/21 05:45:53;;;;;;;2.65;1.85;;;19.80;50.60;;;;;;5044445;28;20119;-66
2022/12/21 05:48:19;;;;;;;3.22;1.80;;;19.80;50.70;;;;;;5061415;28;20029;-67
2022/12/21 05:50:44;;;;;;;3.00;2.05;;;19.80;50.60;;;;;;5037025;28;20025;-67
2022/12/21 05:53:10;;;;;;;2.72;1.77;;;19.80;51.20;;;;;;5053457;28;20306;-67
2022/12/21 05:55:36;;;;;;;2.88;1.98;;;19.80;50.70;;;;;;5048397;28;20369;-66
2022/12/21 05:58:02;;;;;;;2.90;1.85;;;19.80;50.70;;;;;;5046953;28;20029;-67
2022/12/21 06:00:28;;;;;;;3.45;2.10;;;19.80;50.70;;;;;;5049669;28;20027;-67
2022/12/21 06:02:54;;;;;;;2.40;1.83;;;19.70;50.60;;;;;;5046086;28;20079;-68
2022/12/21 06:05:20;;;;;;;2.75;1.70;;;19.80;50.70;;;;;;5049794;28;20036;-68
2022/12/21 06:07:45;;;;;;;2.55;1.75;;;19.80;50.80;;;;;;5049910;28;20021;-70
2022/12/21 06:10:11;;;;;;;4.45;2.00;;;19.80;50.80;;;;;;5046025;28;20021;-70
2022/12/21 06:12:36;;;;;;;2.53;1.80;;;19.80;50.80;;;;;;5050803;28;20017;-70
2022/12/21 06:15:02;;;;;;;2.83;1.85;;;19.80;50.80;;;;;;5052681;28;20032;-70
2022/12/21 06:17:29;;;;;;;2.83;1.80;;;19.80;50.80;;;;;;5062580;28;20094;-70
2022/12/21 06:19:55;;;;;;;2.20;1.50;;;19.80;50.90;;;;;;5059491;28;20056;-70
2022/12/21 06:22:20;;;;;;;2.50;1.70;;;19.70;50.80;;;;;;5049767;28;20138;-70
2022/12/21 06:24:46;;;;;;;3.00;1.85;;;19.70;50.80;;;;;;5050702;28;20025;-70
2022/12/21 06:27:12;;;;;;;2.80;1.90;;;19.70;50.80;;;;;;5049400;28;20078;-67
2022/12/21 06:29:37;;;;;;;2.90;1.92;;;19.70;50.80;;;;;;5044578;28;20483;-68
2022/12/21 06:32:03;;;;;;;2.72;1.83;;;19.70;51.10;;;;;;5049662;28;20025;-68
2022/12/21 06:34:29;;;;;;;2.90;1.83;;;19.80;52.90;;;;;;5048136;28;20075;-71
2022/12/21 06:36:54;;;;;;;2.63;2.00;;;20.00;53.20;;;;;;5040064;28;20028;-69
2022/12/21 06:39:20;;;;;;;3.30;1.92;;;20.20;53.00;;;;;;5055051;28;20473;-71
2022/12/21 06:41:45;;;;;;;2.80;1.75;;;20.40;52.90;;;;;;5057524;28;20021;-72
2022/12/21 06:44:11;;;;;;;4.43;2.03;;;20.60;52.80;;;;;;5060477;28;20021;-71
2022/12/21 06:46:37;;;;;;;2.13;1.60;;;20.80;52.80;;;;;;5049686;28;20029;-71
2022/12/21 06:49:03;;;;;;;1.88;1.30;;;20.80;52.40;;;;;;5036021;28;20427;-71
2022/12/21 06:51:29;;;;;;;1.88;1.35;;;20.80;52.40;;;;;;5043327;28;20566;-69
2022/12/21 06:53:54;;;;;;;3.35;2.38;;;20.80;52.20;;;;;;5053994;28;20115;-71
2022/12/21 06:56:26;;;;;;;2.92;1.98;;;20.90;52.70;;;;;;5056852;28;20144;-67
2022/12/21 06:58:54;;;;;;;2.45;1.67;;;21.10;52.70;;;;;;5059707;28;20037;-68
2022/12/21 07:01:28;;;;;;;2.58;1.70;;;21.20;52.50;;;;;;5054309;28;20028;-68
2022/12/21 07:03:54;;;;;;;2.72;1.50;;;21.30;52.20;;;;;;5047254;28;20033;-68
2022/12/21 07:06:21;;;;;;;1.58;1.20;;;21.30;52.30;;;;;;5053504;28;20105;-68
2022/12/21 07:08:48;;;;;;;2.40;1.77;;;21.30;53.10;;;;;;5040580;28;20032;-69
2022/12/21 07:11:15;;;;;;;2.55;1.80;;;21.40;53.20;;;;;;5041812;28;20029;-69
2022/12/21 07:13:43;;;;;;;2.42;1.40;;;21.60;52.70;;;;;;5036412;28;20048;-69
2022/12/21 07:16:11;;;;;;;1.85;1.25;;;21.70;52.30;;;;;;5045769;28;20041;-69
2022/12/21 07:18:37;;;;;;;1.60;1.17;;;21.70;52.30;;;;;;5057459;28;20029;-68
2022/12/21 07:21:06;;;;;;;2.17;1.48;;;21.60;52.40;;;;;;5034931;28;20018;-68
2022/12/21 07:23:35;;;;;;;2.80;1.75;;;21.70;53.10;;;;;;5050730;28;20036;-69
2022/12/21 07:26:04;;;;;;;2.00;1.20;;;21.90;52.90;;;;;;5044966;28;20427;-70
2022/12/21 07:28:30;;;;;;;1.90;1.33;;;21.90;52.30;;;;;;5044899;28;20314;-69
2022/12/21 07:31:06;;;;;;;1.60;1.10;;;22.00;52.40;;;;;;5056698;28;20028;-69
2022/12/21 07:33:33;;;;;;;2.10;1.30;;;22.00;52.50;;;;;;5055348;28;20075;-69
2022/12/21 07:36:00;;;;;;;1.60;1.10;;;22.00;52.70;;;;;;5053949;28;20024;-69
2022/12/21 07:38:29;;;;;;;1.92;1.23;;;22.00;53.00;;;;;;5063004;28;20028;-69
2022/12/21 07:40:59;;;;;;;1.98;1.30;;;22.00;53.10;;;;;;5048622;28;20098;-69
2022/12/21 07:43:24;;;;;;;1.70;1.10;;;22.00;53.10;;;;;;5037960;28;20029;-69
2022/12/21 07:45:51;;;;;;;1.40;1.10;;;22.00;53.60;;;;;;5057152;28;20503;-70
2022/12/21 07:48:17;;;;;;;2.10;1.30;;;22.00;54.00;;;;;;5056162;28;20047;-69
2022/12/21 07:50:42;;;;;;;1.83;1.20;;;22.00;54.00;;;;;;5053163;28;20036;-69
2022/12/21 07:53:08;;;;;;;3.15;1.25;;;22.10;54.40;;;;;;5046200;28;20112;-70
2022/12/21 07:55:34;;;;;;;2.05;1.20;;;22.10;54.60;;;;;;5048028;28;20107;-70
2022/12/21 07:58:00;;;;;;;2.42;1.30;;;22.10;54.80;;;;;;5041133;28;20032;-69
2022/12/21 08:00:26;;;;;;;1.55;1.13;;;22.10;54.80;;;;;;5043672;28;20557;-70
2022/12/21 08:02:51;;;;;;;1.63;1.20;;;22.20;54.90;;;;;;5055371;28;20056;-70
2022/12/21 08:05:18;;;;;;;2.17;1.30;;;22.20;55.40;;;;;;5052881;28;20025;-68
2022/12/21 08:07:43;;;;;;;1.90;1.20;;;22.20;55.60;;;;;;5050198;28;20486;-69
2022/12/21 08:10:09;;;;;;;1.58;1.10;;;22.20;55.50;;;;;;5057328;28;20100;-69
2022/12/21 08:12:35;;;;;;;1.95;1.20;;;22.20;55.30;;;;;;5054484;28;20032;-69
2022/12/21 08:15:00;;;;;;;4.53;1.10;;;22.30;55.70;;;;;;5062725;28;20021;-68
2022/12/21 08:17:26;;;;;;;2.03;1.20;;;22.30;55.60;;;;;;5053324;28;20489;-70
2022/12/21 08:19:51;;;;;;;2.17;1.13;;;22.30;56.00;;;;;;5047263;28;20052;-69
2022/12/21 08:22:17;;;;;;;2.40;1.30;;;22.30;56.00;;;;;;5040467;28;20123;-69
2022/12/21 08:24:42;;;;;;;1.90;1.30;;;22.30;56.00;;;;;;5043285;28;20476;-69
2022/12/21 08:27:08;;;;;;;1.98;1.10;;;22.40;56.10;;;;;;5059432;28;20029;-68
2022/12/21 08:29:34;;;;;;;1.52;1.00;;;22.40;56.20;;;;;;5053971;28;20029;-70
2022/12/21 08:31:59;;;;;;;1.70;1.10;;;22.40;56.00;;;;;;5051614;28;20037;-69
2022/12/21 08:34:25;;;;;;;2.13;1.20;;;22.50;56.10;;;;;;5044720;28;20021;-69
2022/12/21 08:36:50;;;;;;;1.40;1.10;;;22.50;55.90;;;;;;5049500;28;20083;-71
2022/12/21 08:39:16;;;;;;;2.55;1.13;;;22.50;56.00;;;;;;5042553;28;20051;-69
2022/12/21 08:41:41;;;;;;;2.08;1.20;;;22.50;56.10;;;;;;5058153;28;20087;-69
2022/12/21 08:44:07;;;;;;;1.88;1.10;;;22.50;55.80;;;;;;5052697;28;20021;-68
2022/12/21 08:46:33;;;;;;;2.28;1.10;;;22.50;55.60;;;;;;5055917;28;20400;-70
2022/12/21 08:48:59;;;;;;;1.75;1.20;;;22.60;56.00;;;;;;5050235;28;20025;-69
2022/12/21 08:51:25;;;;;;;2.85;1.02;;;22.60;55.60;;;;;;5039216;28;20066;-69
2022/12/21 08:53:51;;;;;;;1.83;1.20;;;22.60;55.90;;;;;;5054571;28;20033;-70
2022/12/21 08:56:17;;;;;;;1.63;1.10;;;22.60;55.60;;;;;;5054379;28;20028;-69
2022/12/21 08:58:43;;;;;;;1.38;1.00;;;22.60;55.30;;;;;;5042514;28;20396;-69
2022/12/21 09:01:10;;;;;;;2.08;1.20;;;22.60;55.50;;;;;;5038649;28;20025;-70
2022/12/21 09:03:35;;;;;;;2.97;1.08;;;22.70;55.50;;;;;;5048402;28;20024;-69
2022/12/21 09:06:04;;;;;;;1.50;1.10;;;22.70;55.40;;;;;;5053178;28;20385;-70
2022/12/21 09:08:30;;;;;;;1.80;1.10;;;22.70;55.30;;;;;;5051595;28;20025;-68
2022/12/21 09:11:04;;;;;;;1.55;1.08;;;22.70;55.30;;;;;;5052438;28;20388;-68
2022/12/21 09:13:30;;;;;;;3.22;1.08;;;22.70;55.10;;;;;;5052665;28;20116;-69
2022/12/21 09:15:56;;;;;;;1.75;1.00;;;22.70;55.90;;;;;;5036104;28;20505;-69
2022/12/21 09:18:21;;;;;;;1.52;1.00;;;22.80;55.40;;;;;;5050651;28;20036;-69
2022/12/21 09:20:47;;;;;;;1.30;0.98;;;22.80;55.40;;;;;;5046545;28;20389;-70
2022/12/21 09:23:13;;;;;;;1.70;1.00;;;22.80;55.30;;;;;;5047878;28;20166;-69
2022/12/21 09:25:39;;;;;;;2.05;1.00;;;22.80;55.30;;;;;;5046535;28;20021;-69
2022/12/21 09:28:05;;;;;;;2.53;1.10;;;22.80;55.40;;;;;;5048020;28;20361;-69
2022/12/21 09:30:31;;;;;;;3.25;1.38;;;22.90;55.60;;;;;;5047682;28;20496;-69
2022/12/21 09:32:56;;;;;;;3.25;1.42;;;22.90;55.30;;;;;;5052909;28;20380;-69
2022/12/21 09:35:22;;;;;;;1.35;0.98;;;22.90;55.30;;;;;;5057717;28;20036;-68
2022/12/21 09:37:48;;;;;;;1.85;1.10;;;23.00;55.40;;;;;;5050045;28;20033;-69
2022/12/21 09:40:15;;;;;;;2.65;1.08;;;23.00;55.40;;;;;;5058411;28;20084;-68
2022/12/21 09:43:02;;;;;;;2.67;1.05;;;23.00;55.40;;;;;;5035297;28;20080;-70
2022/12/21 09:46:07;;;;;;;2.70;1.10;;;23.00;55.40;;;;;;5058197;28;20052;-70
2022/12/21 09:48:46;;;;;;;1.70;0.85;;;23.00;55.40;;;;;;5070229;28;20480;-70
2022/12/21 09:51:27;;;;;;;1.58;0.88;;;23.00;55.30;;;;;;5062357;28;20059;-69
2022/12/21 09:54:05;;;;;;;1.65;0.85;;;23.00;55.40;;;;;;5059651;28;20040;-70
2022/12/21 09:56:31;;;;;;;1.75;1.02;;;23.00;55.10;;;;;;5049928;28;20099;-69
2022/12/21 09:59:02;;;;;;;1.33;0.90;;;23.00;55.40;;;;;;5061045;28;20069;-70
2022/12/21 10:01:27;;;;;;;1.58;1.00;;;23.00;55.30;;;;;;5061410;28;20037;-69
2022/12/21 10:04:08;;;;;;;1.77;1.00;;;23.00;55.20;;;;;;5057453;28;20047;-70
2022/12/21 10:07:11;;;;;;;1.13;0.90;;;23.00;55.50;;;;;;5058027;28;20027;-69
2022/12/21 10:10:15;;;;;;;1.73;0.98;;;23.10;55.50;;;;;;5059715;28;20140;-69
2022/12/21 10:13:20;;;;;;;1.98;0.93;;;23.10;55.50;;;;;;5046807;28;20063;-70
2022/12/21 10:16:09;;;;;;;2.22;0.90;;;23.10;55.30;;;;;;5042751;28;20453;-70
2022/12/21 10:18:38;;;;;;;1.63;1.10;;;23.10;55.30;;;;;;5064898;28;20426;-69
2022/12/21 10:21:13;;;;;;;2.00;1.00;;;23.20;55.10;;;;;;5062716;28;20484;-69
2022/12/21 10:23:44;;;;;;;1.70;0.93;;;23.10;55.20;;;;;;5057718;28;20148;-70
2022/12/21 10:26:14;;;;;;;1.67;0.90;;;23.20;55.30;;;;;;5050980;28;20025;-70
2022/12/21 10:28:46;;;;;;;1.42;0.80;;;23.20;55.20;;;;;;5059288;28;20044;-69
2022/12/21 10:31:32;;;;;;;2.17;0.90;;;23.20;55.20;;;;;;5063581;28;20051;-72
2022/12/21 10:33:59;;;;;;;1.50;1.10;;;23.20;55.10;;;;;;5061017;28;20028;-70
2022/12/21 10:36:36;;;;;;;1.88;0.95;;;23.20;55.00;;;;;;5048188;28;20025;-69
2022/12/21 10:39:03;;;;;;;3.03;1.20;;;23.20;55.20;;;;;;5050817;28;20033;-70
2022/12/21 10:41:42;;;;;;;1.30;0.93;;;23.30;55.20;;;;;;5036658;28;20056;-69
2022/12/21 10:44:10;;;;;;;1.65;1.00;;;23.30;55.30;;;;;;5053753;28;20021;-70
2022/12/21 10:46:37;;;;;;;2.90;0.90;;;23.30;55.40;;;;;;5053141;28;20025;-70
2022/12/21 10:49:16;;;;;;;1.70;0.80;;;23.30;55.20;;;;;;5045435;28;20040;-69
2022/12/21 10:51:42;;;;;;;1.60;1.00;;;23.30;55.30;;;;;;5054814;28;20056;-70
2022/12/21 10:54:09;;;;;;;1.20;0.90;;;23.40;55.30;;;;;;5055053;28;20025;-70
2022/12/21 10:56:47;;;;;;;1.23;0.80;;;23.40;55.30;;;;;;5058102;28;20387;-70
2022/12/21 10:59:19;;;;;;;1.33;0.90;;;23.40;55.30;;;;;;5055584;28;20032;-70
2022/12/21 11:01:44;;;;;;;1.63;1.00;;;23.40;55.30;;;;;;5048631;28;20040;-70
2022/12/21 11:04:28;;;;;;;2.03;0.90;;;23.40;55.20;;;;;;5055321;28;20029;-71
2022/12/21 11:07:24;;;;;;;1.33;0.85;;;23.40;55.40;;;;;;5061683;28;20021;-69
2022/12/21 11:09:59;;;;;;;1.73;0.90;;;23.40;55.10;;;;;;5071307;28;20032;-69
2022/12/21 11:12:25;;;;;;;1.77;0.90;;;23.40;55.20;;;;;;5061273;28;20116;-70
2022/12/21 11:14:52;;;;;;;1.30;0.80;;;23.50;55.10;;;;;;5055223;28;20035;-70
2022/12/21 11:17:26;;;;;;;1.20;0.80;;;23.50;55.20;;;;;;5048008;28;20159;-69
2022/12/21 11:20:08;;;;;;;1.38;1.00;;;23.50;55.20;;;;;;5050507;28;20043;-70
2022/12/21 11:22:39;;;;;;;2.75;0.90;;;23.50;55.30;;;;;;5046594;28;20033;-70
2022/12/21 11:25:11;;;;;;;1.17;0.82;;;23.50;55.20;;;;;;5049454;28;20021;-69
2022/12/21 11:27:37;;;;;;;1.08;0.77;;;23.50;55.00;;;;;;5053572;28;20902;-70
2022/12/21 11:30:17;;;;;;;1.52;0.80;;;23.50;55.10;;;;;;5059547;28;20031;-69
2022/12/21 11:32:45;;;;;;;1.95;1.00;;;23.60;55.30;;;;;;5055702;28;20040;-69
2022/12/21 11:35:17;;;;;;;1.70;0.90;;;23.60;55.10;;;;;;5046115;28;20436;-69
2022/12/21 11:37:46;;;;;;;1.20;0.70;;;23.60;55.20;;;;;;5058692;28;20040;-69
2022/12/21 11:40:11;;;;;;;2.58;0.80;;;23.60;55.20;;;;;;5056691;28;20111;-69
2022/12/21 11:42:59;;;;;;;1.85;1.40;;;23.60;55.10;;;;;;5042311;28;20112;-69
2022/12/21 11:45:34;;;;;;;3.58;2.28;;;23.60;51.00;;;;;;5043361;28;20036;-68
2022/12/21 11:48:05;;;;;;;2.72;2.20;;;23.50;48.00;;;;;;5056862;28;20022;-69
2022/12/21 11:50:30;;;;;;;2.72;1.95;;;23.40;47.70;;;;;;5060705;28;20552;-69
2022/12/21 11:53:02;;;;;;;2.30;1.60;;;23.30;47.60;;;;;;5045150;28;20116;-69
2022/12/21 11:55:54;;;;;;;2.33;1.70;;;23.30;48.20;;;;;;5056758;28;20033;-69
2022/12/21 11:58:37;;;;;;;2.03;1.42;;;23.30;48.20;;;;;;5053743;28;20036;-69
2022/12/21 12:01:24;;;;;;;2.30;1.70;;;23.30;48.40;;;;;;5063755;28;20159;-70
2022/12/21 12:04:10;;;;;;;2.38;1.50;;;23.30;48.20;;;;;;5058710;28;20118;-70
2022/12/21 12:07:00;;;;;;;2.10;1.42;;;23.20;48.10;;;;;;5045079;28;20477;-70
2022/12/21 12:09:39;;;;;;;;;;;23.20;48.30;;;;;;5057773;28;20025;-69
2022/12/21 12:12:22;;;;;;;2.20;1.48;;;23.20;48.20;;;;;;5052599;28;19905;-69
2022/12/21 12:15:20;;;;;;;2.03;1.30;;;23.10;48.20;;;;;;5059036;28;20032;-69
2022/12/21 12:17:54;;;;;;;2.07;1.40;;;23.10;48.20;;;;;;5060460;28;20068;-69
2022/12/21 12:20:35;;;;;;;1.50;1.10;;;23.10;48.30;;;;;;5048785;28;20025;-69
2022/12/21 12:23:19;;;;;;;1.90;1.25;;;23.00;48.60;;;;;;5053766;28;20484;-68
2022/12/21 12:25:47;;;;;;;1.95;1.30;;;23.00;48.10;;;;;;5056162;28;20025;-69
2022/12/21 12:28:28;;;;;;;2.47;1.47;;;23.00;48.40;;;;;;5042425;28;20078;-71
2022/12/21 12:31:18;;;;;;;1.85;1.27;;;23.00;48.20;;;;;;5050205;28;20353;-69
2022/12/21 12:34:01;;;;;;;1.83;1.30;;;23.00;48.40;;;;;;5047420;28;20523;-69
2022/12/21 12:36:49;;;;;;;1.45;1.15;;;23.00;48.40;;;;;;5047077;28;20028;-72
2022/12/21 12:39:37;;;;;;;1.88;1.20;;;22.90;48.40;;;;;;5048248;28;20048;-70
2022/12/21 12:42:21;;;;;;;2.05;1.00;;;22.90;48.30;;;;;;5050600;28;20021;-70
2022/12/21 12:45:16;;;;;;;2.42;1.48;;;22.90;48.40;;;;;;5063060;28;20048;-70
2022/12/21 12:47:54;;;;;;;1.55;1.20;;;22.90;48.20;;;;;;5043553;28;20049;-71
2022/12/21 12:50:38;;;;;;;2.13;1.30;;;22.90;48.30;;;;;;5053184;28;20021;-70
2022/12/21 12:53:16;;;;;;;1.83;1.20;;;22.90;48.30;;;;;;5051414;28;20480;-70
2022/12/21 12:56:14;;;;;;;1.50;1.10;;;22.90;48.40;;;;;;5058927;28;20115;-71
2022/12/21 12:58:47;;;;;;;1.80;1.30;;;22.90;48.30;;;;;;5041322;28;20021;-69
2022/12/21 13:01:42;;;;;;;2.53;1.52;;;22.90;48.50;;;;;;5053743;28;20105;-69
2022/12/21 13:04:43;;;;;;;2.03;1.27;;;22.90;48.40;;;;;;5039761;28;20026;-69
2022/12/21 13:07:30;;;;;;;2.03;1.40;;;22.90;48.30;;;;;;4958590;28;20483;-69
2022/12/21 13:10:26;;;;;;;1.70;1.30;;;22.80;48.40;;;;;;5024685;28;20043;-69
2022/12/21 13:13:20;;;;;;;2.15;1.20;;;22.90;48.30;;;;;;5050304;28;20484;-70
2022/12/21 13:16:00;;;;;;;1.95;1.27;;;22.80;48.20;;;;;;5006304;28;20038;-71
2022/12/21 13:18:49;;;;;;;1.75;1.27;;;22.80;48.30;;;;;;5048581;28;20040;-72
2022/12/21 13:21:17;;;;;;;1.85;1.33;;;22.80;48.40;;;;;;5049447;28;20060;-69
2022/12/21 13:24:10;;;;;;;1.85;1.10;;;22.70;48.90;;;;;;5054587;28;20025;-68
2022/12/21 13:26:39;;;;;;;1.27;1.02;;;22.70;48.60;;;;;;5051156;28;20029;-69
2022/12/21 13:29:32;;;;;;;2.38;1.30;;;22.70;48.60;;;;;;5046905;28;20048;-69